createdAt,value
2016-03-26T00:00:46.920Z,1001.04
2016-03-26T00:01:46.939Z,1001.04
2016-03-26T00:02:46.956Z,1001.09
2016-03-26T00:03:46.975Z,1001.04
2016-03-26T00:04:46.992Z,1001.01
2016-03-26T00:05:47.012Z,1001.04
2016-03-26T00:06:47.030Z,1001.03
2016-03-26T00:07:47.048Z,1001.03
2016-03-26T00:08:47.051Z,1001.03
2016-03-26T00:09:47.085Z,1001.06
2016-03-26T00:10:47.088Z,1001.06
2016-03-26T00:11:47.153Z,1001.04
2016-03-26T00:12:47.124Z,1001.03
2016-03-26T00:13:47.142Z,1001.04
2016-03-26T00:14:47.161Z,1001.02
2016-03-26T00:15:47.179Z,1001.01
2016-03-26T00:16:47.197Z,1000.98
2016-03-26T00:17:47.200Z,1000.96
2016-03-26T00:18:47.234Z,1000.98
2016-03-26T00:19:47.237Z,1000.93
2016-03-26T00:20:47.255Z,1000.93
2016-03-26T00:21:47.273Z,1000.91
2016-03-26T00:22:47.291Z,1000.93
2016-03-26T00:23:47.309Z,1000.89
2016-03-26T00:24:47.328Z,1000.87
2016-03-26T00:25:47.346Z,1000.9
2016-03-26T00:26:47.365Z,1000.85
2016-03-26T00:27:47.384Z,1000.86
2016-03-26T00:28:47.401Z,1000.9
2016-03-26T00:29:47.420Z,1000.87
2016-03-26T00:30:47.422Z,1000.87
2016-03-26T00:31:47.440Z,1000.92
2016-03-26T00:32:47.459Z,1000.98
2016-03-26T00:33:47.477Z,1000.89
2016-03-26T00:34:47.495Z,1000.96
2016-03-26T00:35:47.514Z,1000.95
2016-03-26T00:36:47.533Z,1000.97
2016-03-26T00:37:47.550Z,1000.91
2016-03-26T00:38:47.570Z,1000.91
2016-03-26T00:39:47.572Z,1000.89
2016-03-26T00:40:47.589Z,1000.96
2016-03-26T00:41:47.596Z,1000.92
2016-03-26T00:42:47.615Z,1000.93
2016-03-26T00:43:47.633Z,1000.93
2016-03-26T00:44:47.651Z,1000.9
2016-03-26T00:45:47.686Z,1000.92
2016-03-26T00:46:47.689Z,1000.92
2016-03-26T00:47:47.706Z,1000.94
2016-03-26T00:48:47.740Z,1000.94
2016-03-26T00:49:47.743Z,1000.94
2016-03-26T00:50:47.761Z,1000.94
2016-03-26T00:51:47.780Z,1000.95
2016-03-26T00:52:47.797Z,1000.89
2016-03-26T00:53:47.817Z,1000.87
2016-03-26T00:54:47.835Z,1000.86
2016-03-26T00:55:47.838Z,1000.87
2016-03-26T00:56:47.855Z,1000.91
2016-03-26T00:57:47.874Z,1000.9
2016-03-26T00:58:47.892Z,1000.95
2016-03-26T00:59:47.911Z,1000.9
2016-03-26T01:00:47.929Z,1000.89
2016-03-26T01:01:47.947Z,1000.87
2016-03-26T01:02:47.966Z,1000.87
2016-03-26T01:03:47.969Z,1000.9
2016-03-26T01:04:47.987Z,1000.93
2016-03-26T01:05:48.004Z,1000.89
2016-03-26T01:06:48.023Z,1000.92
2016-03-26T01:07:48.214Z,1000.94
2016-03-26T01:08:48.060Z,1000.93
2016-03-26T01:09:48.079Z,1000.93
2016-03-26T01:10:48.097Z,1000.94
2016-03-26T01:11:48.131Z,1000.91
2016-03-26T01:12:48.135Z,1000.92
2016-03-26T01:13:48.153Z,1000.96
2016-03-26T01:14:48.155Z,1001.01
2016-03-26T01:15:48.174Z,1001.03
2016-03-26T01:16:48.192Z,1001.07
2016-03-26T01:17:48.226Z,1001.09
2016-03-26T01:18:48.228Z,1001.11
2016-03-26T01:19:48.246Z,1001.11
2016-03-26T01:20:48.265Z,1001.12
2016-03-26T01:21:48.284Z,1001.14
2016-03-26T01:22:48.286Z,1001.16
2016-03-26T01:23:48.304Z,1001.17
2016-03-26T01:24:48.323Z,1001.2
2016-03-26T01:25:48.340Z,1001.2
2016-03-26T01:26:48.406Z,1001.18
2016-03-26T01:27:48.378Z,1001.19
2016-03-26T01:28:48.395Z,1001.2
2016-03-26T01:29:48.414Z,1001.23
2016-03-26T01:30:48.433Z,1001.21
2016-03-26T01:31:48.451Z,1001.23
2016-03-26T01:32:48.470Z,1001.24
2016-03-26T01:33:48.471Z,1001.27
2016-03-26T01:34:48.490Z,1001.31
2016-03-26T01:35:48.508Z,1001.4
2016-03-26T01:36:48.527Z,1001.39
2016-03-26T01:37:48.544Z,1001.43
2016-03-26T01:38:48.563Z,1001.43
2016-03-26T01:39:48.582Z,1001.45
2016-03-26T01:40:48.599Z,1001.42
2016-03-26T01:41:48.619Z,1001.4
2016-03-26T01:42:48.636Z,1001.41
2016-03-26T01:43:48.655Z,1001.43
2016-03-26T01:44:48.674Z,1001.4
2016-03-26T01:45:48.692Z,1001.43
2016-03-26T01:46:48.710Z,1001.44
2016-03-26T01:47:48.712Z,1001.43
2016-03-26T01:48:48.731Z,1001.45
2016-03-26T01:49:48.749Z,1001.46
2016-03-26T01:50:48.768Z,1001.46
2016-03-26T01:51:48.785Z,1001.45
2016-03-26T01:52:48.804Z,1001.44
2016-03-26T01:53:48.823Z,1001.44
2016-03-26T01:54:48.840Z,1001.43
2016-03-26T01:55:48.843Z,1001.42
2016-03-26T01:56:48.862Z,1001.48
2016-03-26T01:57:48.880Z,1001.47
2016-03-26T01:58:48.898Z,1001.46
2016-03-26T01:59:48.916Z,1001.52
2016-03-26T02:00:48.934Z,1001.54
2016-03-26T02:01:48.954Z,1001.53
2016-03-26T02:02:48.972Z,1001.5
2016-03-26T02:03:48.990Z,1001.49
2016-03-26T02:04:49.009Z,1001.49
2016-03-26T02:05:49.027Z,1001.42
2016-03-26T02:06:49.045Z,1001.47
2016-03-26T02:07:49.047Z,1001.49
2016-03-26T02:08:49.066Z,1001.5
2016-03-26T02:09:49.084Z,1001.51
2016-03-26T02:10:49.102Z,1001.51
2016-03-26T02:11:49.121Z,1001.5
2016-03-26T02:12:49.139Z,1001.49
2016-03-26T02:13:49.158Z,1001.47
2016-03-26T02:14:49.160Z,1001.42
2016-03-26T02:15:49.179Z,1001.46
2016-03-26T02:16:49.197Z,1001.47
2016-03-26T02:17:49.216Z,1001.46
2016-03-26T02:18:49.233Z,1001.51
2016-03-26T02:19:49.252Z,1001.46
2016-03-26T02:20:49.270Z,1001.49
2016-03-26T02:21:49.288Z,1001.44
2016-03-26T02:22:49.307Z,1001.45
2016-03-26T02:23:49.325Z,1001.42
2016-03-26T02:24:49.328Z,1001.45
2016-03-26T02:25:49.345Z,1001.47
2016-03-26T02:26:49.364Z,1001.47
2016-03-26T02:27:49.382Z,1001.42
2016-03-26T02:28:49.401Z,1001.42
2016-03-26T02:29:49.420Z,1001.44
2016-03-26T02:30:49.438Z,1001.43
2016-03-26T02:31:49.456Z,1001.41
2016-03-26T02:32:49.459Z,1001.42
2016-03-26T02:33:49.492Z,1001.42
2016-03-26T02:34:49.511Z,1001.42
2016-03-26T02:35:49.513Z,1001.45
2016-03-26T02:36:49.531Z,1001.45
2016-03-26T02:37:49.550Z,1001.46
2016-03-26T02:38:49.568Z,1001.48
2016-03-26T02:39:49.587Z,1001.53
2016-03-26T02:40:49.605Z,1001.48
2016-03-26T02:41:49.624Z,1001.5
2016-03-26T02:42:49.626Z,1001.57
2016-03-26T02:43:49.644Z,1001.52
2016-03-26T02:44:49.663Z,1001.55
2016-03-26T02:45:49.681Z,1001.59
2016-03-26T02:46:49.699Z,1001.62
2016-03-26T02:47:49.718Z,1001.62
2016-03-26T02:48:49.736Z,1001.62
2016-03-26T02:49:49.754Z,1001.58
2016-03-26T02:50:49.773Z,1001.63
2016-03-26T02:51:49.790Z,1001.58
2016-03-26T02:52:49.810Z,1001.62
2016-03-26T02:53:49.827Z,1001.63
2016-03-26T02:54:49.830Z,1001.62
2016-03-26T02:55:49.849Z,1001.59
2016-03-26T02:56:49.867Z,1001.63
2016-03-26T02:57:49.885Z,1001.59
2016-03-26T02:58:49.904Z,1001.58
2016-03-26T02:59:49.922Z,1001.6
2016-03-26T03:00:49.940Z,1001.59
2016-03-26T03:01:49.943Z,1001.59
2016-03-26T03:02:49.962Z,1001.65
2016-03-26T03:03:49.995Z,1001.64
2016-03-26T03:04:49.998Z,1001.63
2016-03-26T03:05:50.017Z,1001.61
2016-03-26T03:06:50.034Z,1001.62
2016-03-26T03:07:50.053Z,1001.63
2016-03-26T03:08:50.072Z,1001.6
2016-03-26T03:09:50.089Z,1001.64
2016-03-26T03:10:50.108Z,1001.67
2016-03-26T03:11:50.125Z,1001.62
2016-03-26T03:12:50.129Z,1001.63
2016-03-26T03:13:50.147Z,1001.63
2016-03-26T03:14:50.165Z,1001.63
2016-03-26T03:15:50.183Z,1001.62
2016-03-26T03:16:50.202Z,1001.63
2016-03-26T03:17:50.221Z,1001.62
2016-03-26T03:18:50.238Z,1001.63
2016-03-26T03:19:50.257Z,1001.64
2016-03-26T03:20:50.260Z,1001.69
2016-03-26T03:21:50.293Z,1001.7
2016-03-26T03:22:50.296Z,1001.69
2016-03-26T03:23:50.315Z,1001.69
2016-03-26T03:24:50.332Z,1001.69
2016-03-26T03:25:50.351Z,1001.69
2016-03-26T03:26:50.370Z,1001.7
2016-03-26T03:27:50.387Z,1001.73
2016-03-26T03:28:50.406Z,1001.72
2016-03-26T03:29:50.409Z,1001.71
2016-03-26T03:30:50.427Z,1001.67
2016-03-26T03:31:50.445Z,1001.71
2016-03-26T03:32:50.464Z,1001.73
2016-03-26T03:33:50.481Z,1001.7
2016-03-26T03:34:50.501Z,1001.7
2016-03-26T03:35:50.520Z,1001.72
2016-03-26T03:36:50.537Z,1001.7
2016-03-26T03:37:50.556Z,1001.69
2016-03-26T03:38:50.574Z,1001.73
2016-03-26T03:39:50.592Z,1001.76
2016-03-26T03:40:50.595Z,1001.77
2016-03-26T03:41:50.614Z,1001.72
2016-03-26T03:42:50.632Z,1001.75
2016-03-26T03:43:50.650Z,1001.74
2016-03-26T03:44:50.669Z,1001.75
2016-03-26T03:45:50.686Z,1001.77
2016-03-26T03:46:50.705Z,1001.74
2016-03-26T03:47:50.722Z,1001.77
2016-03-26T03:48:50.741Z,1001.79
2016-03-26T03:49:50.744Z,1001.82
2016-03-26T03:50:50.763Z,1001.76
2016-03-26T03:51:50.780Z,1001.82
2016-03-26T03:52:50.799Z,1001.77
2016-03-26T03:53:50.818Z,1001.76
2016-03-26T03:54:50.835Z,1001.78
2016-03-26T03:55:50.854Z,1001.79
2016-03-26T03:56:50.872Z,1001.79
2016-03-26T03:57:50.874Z,1001.79
2016-03-26T03:58:50.894Z,1001.8
2016-03-26T03:59:50.912Z,1001.82
2016-03-26T04:00:50.929Z,1001.81
2016-03-26T04:01:50.949Z,1001.84
2016-03-26T04:02:50.982Z,1001.82
2016-03-26T04:03:50.984Z,1001.83
2016-03-26T04:04:51.003Z,1001.86
2016-03-26T04:05:51.021Z,1001.85
2016-03-26T04:06:51.039Z,1001.83
2016-03-26T04:07:51.059Z,1001.79
2016-03-26T04:08:51.061Z,1001.79
2016-03-26T04:09:51.078Z,1001.84
2016-03-26T04:10:51.098Z,1001.87
2016-03-26T04:11:51.116Z,1001.84
2016-03-26T04:12:51.133Z,1001.87
2016-03-26T04:13:51.153Z,1001.86
2016-03-26T04:14:51.170Z,1001.9
2016-03-26T04:15:51.173Z,1001.87
2016-03-26T04:16:51.208Z,1001.92
2016-03-26T04:17:51.210Z,1001.9
2016-03-26T04:18:51.228Z,1001.88
2016-03-26T04:19:51.247Z,1001.91
2016-03-26T04:20:51.265Z,1001.94
2016-03-26T04:21:51.283Z,1001.96
2016-03-26T04:22:51.301Z,1001.93
2016-03-26T04:23:51.320Z,1001.93
2016-03-26T04:24:51.322Z,1001.93
2016-03-26T04:25:51.357Z,1001.95
2016-03-26T04:26:51.359Z,1001.96
2016-03-26T04:27:51.377Z,1001.98
2016-03-26T04:28:51.396Z,1001.95
2016-03-26T04:29:51.414Z,1001.92
2016-03-26T04:30:51.432Z,1001.93
2016-03-26T04:31:51.451Z,1001.93
2016-03-26T04:32:51.469Z,1001.9
2016-03-26T04:33:51.487Z,1001.93
2016-03-26T04:34:51.506Z,1001.93
2016-03-26T04:35:51.509Z,1001.94
2016-03-26T04:36:51.542Z,1001.97
2016-03-26T04:37:51.545Z,1001.95
2016-03-26T04:38:51.564Z,1001.94
2016-03-26T04:39:51.581Z,1001.98
2016-03-26T04:40:51.601Z,1001.97
2016-03-26T04:41:51.618Z,1001.94
2016-03-26T04:42:51.652Z,1001.98
2016-03-26T04:43:51.655Z,1001.98
2016-03-26T04:44:51.673Z,1002.02
2016-03-26T04:45:51.679Z,1001.99
2016-03-26T04:46:51.699Z,1002
2016-03-26T04:47:51.716Z,1001.98
2016-03-26T04:48:51.734Z,1001.95
2016-03-26T04:49:51.754Z,1001.94
2016-03-26T04:50:51.771Z,1001.92
2016-03-26T04:51:51.789Z,1001.94
2016-03-26T04:52:51.809Z,1001.94
2016-03-26T04:53:51.826Z,1001.96
2016-03-26T04:54:51.845Z,1001.98
2016-03-26T04:55:51.847Z,1001.95
2016-03-26T04:56:51.865Z,1002.01
2016-03-26T04:57:51.883Z,1001.96
2016-03-26T04:58:51.903Z,1002.03
2016-03-26T04:59:51.920Z,1002
2016-03-26T05:00:51.938Z,1002.02
2016-03-26T05:01:51.958Z,1002.02
2016-03-26T05:02:51.975Z,1002.05
2016-03-26T05:03:51.994Z,1002.04
2016-03-26T05:04:51.997Z,1002.01
2016-03-26T05:05:52.014Z,1002.02
2016-03-26T05:06:52.033Z,1001.98
2016-03-26T05:07:52.052Z,1001.96
2016-03-26T05:08:52.069Z,1001.95
2016-03-26T05:09:52.088Z,1001.94
2016-03-26T05:10:52.107Z,1001.95
2016-03-26T05:11:52.125Z,1001.94
2016-03-26T05:12:52.283Z,1001.96
2016-03-26T05:13:52.161Z,1001.94
2016-03-26T05:14:52.164Z,1001.94
2016-03-26T05:15:52.182Z,1001.93
2016-03-26T05:16:52.200Z,1001.95
2016-03-26T05:17:52.218Z,1001.92
2016-03-26T05:18:52.237Z,1001.96
2016-03-26T05:19:52.256Z,1001.98
2016-03-26T05:20:52.274Z,1001.95
2016-03-26T05:21:52.292Z,1001.95
2016-03-26T05:22:52.310Z,1002.02
2016-03-26T05:23:52.313Z,1002.03
2016-03-26T05:24:52.331Z,1002.01
2016-03-26T05:25:52.350Z,1002.04
2016-03-26T05:26:52.368Z,1001.98
2016-03-26T05:27:52.464Z,1001.98
2016-03-26T05:28:52.406Z,1002.05
2016-03-26T05:29:52.423Z,1002.02
2016-03-26T05:30:52.441Z,1001.97
2016-03-26T05:31:52.460Z,1001.96
2016-03-26T05:32:52.462Z,1001.95
2016-03-26T05:33:52.496Z,1001.93
2016-03-26T05:34:52.514Z,1001.94
2016-03-26T05:35:52.517Z,1001.97
2016-03-26T05:36:52.535Z,1001.97
2016-03-26T05:37:52.555Z,1002
2016-03-26T05:38:52.572Z,1002.05
2016-03-26T05:39:52.591Z,1002.04
2016-03-26T05:40:52.609Z,1002.02
2016-03-26T05:41:52.627Z,1001.97
2016-03-26T05:42:52.645Z,1002
2016-03-26T05:43:52.664Z,1001.99
2016-03-26T05:44:52.666Z,1001.97
2016-03-26T05:45:52.685Z,1001.96
2016-03-26T05:46:52.704Z,1001.96
2016-03-26T05:47:52.721Z,1001.94
2016-03-26T05:48:52.740Z,1001.94
2016-03-26T05:49:52.758Z,1001.94
2016-03-26T05:50:52.776Z,1001.97
2016-03-26T05:51:52.779Z,1002.01
2016-03-26T05:52:52.863Z,1002.03
2016-03-26T05:53:52.850Z,1002
2016-03-26T05:54:52.824Z,1002.01
2016-03-26T05:55:52.843Z,1001.99
2016-03-26T05:56:53.102Z,1002.01
2016-03-26T05:57:52.981Z,1002.03
2016-03-26T05:58:52.889Z,1002.04
2016-03-26T05:59:52.922Z,1002.07
2016-03-26T06:00:52.925Z,1002.06
2016-03-26T06:01:52.944Z,1002.04
2016-03-26T06:02:52.962Z,1002.04
2016-03-26T06:03:52.980Z,1002.04
2016-03-26T06:04:52.999Z,1002.03
2016-03-26T06:05:53.012Z,1001.97
2016-03-26T06:06:53.022Z,1001.98
2016-03-26T06:07:53.034Z,1002
2016-03-26T06:08:53.029Z,1002.04
2016-03-26T06:09:53.039Z,1002.02
2016-03-26T06:10:53.053Z,1002
2016-03-26T06:11:53.068Z,1002
2016-03-26T06:12:53.083Z,1002.02
2016-03-26T06:13:53.099Z,1002
2016-03-26T06:14:53.113Z,1001.98
2016-03-26T06:15:53.130Z,1001.96
2016-03-26T06:16:53.146Z,1001.96
2016-03-26T06:17:53.164Z,1001.98
2016-03-26T06:18:53.166Z,1002
2016-03-26T06:19:53.184Z,1001.96
2016-03-26T06:20:53.201Z,1001.99
2016-03-26T06:21:53.219Z,1001.9
2016-03-26T06:22:53.237Z,1001.92
2016-03-26T06:23:53.254Z,1001.91
2016-03-26T06:24:53.272Z,1001.91
2016-03-26T06:25:53.290Z,1001.87
2016-03-26T06:26:53.309Z,1001.93
2016-03-26T06:27:53.328Z,1001.98
2016-03-26T06:28:53.346Z,1001.97
2016-03-26T06:29:53.364Z,1001.96
2016-03-26T06:30:53.382Z,1001.95
2016-03-26T06:31:53.401Z,1001.93
2016-03-26T06:32:53.419Z,1001.94
2016-03-26T06:33:53.421Z,1001.93
2016-03-26T06:34:53.439Z,1001.89
2016-03-26T06:35:53.474Z,1001.9
2016-03-26T06:36:53.492Z,1001.86
2016-03-26T06:37:53.494Z,1001.89
2016-03-26T06:38:53.513Z,1001.89
2016-03-26T06:39:53.531Z,1001.86
2016-03-26T06:40:53.549Z,1001.9
2016-03-26T06:41:53.568Z,1001.84
2016-03-26T06:42:53.586Z,1001.9
2016-03-26T06:43:53.604Z,1001.89
2016-03-26T06:44:53.624Z,1001.9
2016-03-26T06:45:53.641Z,1001.93
2016-03-26T06:46:53.659Z,1001.88
2016-03-26T06:47:53.679Z,1001.86
2016-03-26T06:48:53.696Z,1001.91
2016-03-26T06:49:53.714Z,1001.86
2016-03-26T06:50:53.733Z,1001.93
2016-03-26T06:51:53.751Z,1001.86
2016-03-26T06:52:53.770Z,1001.91
2016-03-26T06:53:53.787Z,1001.93
2016-03-26T06:54:53.806Z,1001.92
2016-03-26T06:55:53.809Z,1001.9
2016-03-26T06:56:53.842Z,1001.95
2016-03-26T06:57:53.861Z,1001.9
2016-03-26T06:58:53.863Z,1001.9
2016-03-26T06:59:53.898Z,1001.93
2016-03-26T07:00:53.900Z,1001.92
2016-03-26T07:01:53.919Z,1001.93
2016-03-26T07:02:53.953Z,1001.91
2016-03-26T07:03:53.971Z,1001.9
2016-03-26T07:04:53.974Z,1001.93
2016-03-26T07:05:53.992Z,1001.89
2016-03-26T07:06:54.010Z,1001.9
2016-03-26T07:07:54.028Z,1001.87
2016-03-26T07:08:54.047Z,1001.86
2016-03-26T07:09:54.066Z,1001.93
2016-03-26T07:10:54.083Z,1001.89
2016-03-26T07:11:54.101Z,1001.9
2016-03-26T07:12:54.121Z,1001.85
2016-03-26T07:13:54.138Z,1001.88
2016-03-26T07:14:54.156Z,1001.9
2016-03-26T07:15:54.175Z,1001.89
2016-03-26T07:16:54.193Z,1001.92
2016-03-26T07:17:54.212Z,1001.88
2016-03-26T07:18:54.230Z,1001.91
2016-03-26T07:19:54.248Z,1001.93
2016-03-26T07:20:54.267Z,1001.93
2016-03-26T07:21:54.285Z,1001.91
2016-03-26T07:22:54.303Z,1001.89
2016-03-26T07:23:54.321Z,1001.93
2016-03-26T07:24:54.340Z,1001.92
2016-03-26T07:25:54.359Z,1001.96
2016-03-26T07:26:54.376Z,1001.97
2016-03-26T07:27:54.394Z,1001.94
2016-03-26T07:28:54.414Z,1001.96
2016-03-26T07:29:54.431Z,1001.94
2016-03-26T07:30:54.449Z,1001.95
2016-03-26T07:31:54.468Z,1001.95
2016-03-26T07:32:54.486Z,1001.92
2016-03-26T07:33:54.505Z,1001.92
2016-03-26T07:34:54.523Z,1001.93
2016-03-26T07:35:54.541Z,1001.95
2016-03-26T07:36:54.575Z,1001.92
2016-03-26T07:37:54.594Z,1001.94
2016-03-26T07:38:54.611Z,1001.95
2016-03-26T07:39:54.630Z,1001.98
2016-03-26T07:40:54.649Z,1001.96
2016-03-26T07:41:54.667Z,1001.97
2016-03-26T07:42:54.685Z,1001.92
2016-03-26T07:43:54.688Z,1001.94
2016-03-26T07:44:54.722Z,1001.92
2016-03-26T07:45:54.740Z,1001.92
2016-03-26T07:46:54.757Z,1001.91
2016-03-26T07:47:54.777Z,1001.9
2016-03-26T07:48:54.795Z,1001.88
2016-03-26T07:49:54.813Z,1001.88
2016-03-26T07:50:54.832Z,1001.86
2016-03-26T07:51:54.850Z,1001.86
2016-03-26T07:52:54.868Z,1001.82
2016-03-26T07:53:54.887Z,1001.82
2016-03-26T07:54:54.904Z,1001.79
2016-03-26T07:55:54.923Z,1001.83
2016-03-26T07:56:54.942Z,1001.82
2016-03-26T07:57:54.960Z,1001.84
2016-03-26T07:58:54.979Z,1001.77
2016-03-26T07:59:54.997Z,1001.76
2016-03-26T08:00:55.015Z,1001.73
2016-03-26T08:01:55.033Z,1001.69
2016-03-26T08:02:55.050Z,1001.69
2016-03-26T08:03:55.070Z,1001.66
2016-03-26T08:04:55.103Z,1001.64
2016-03-26T08:05:55.106Z,1001.59
2016-03-26T08:06:55.141Z,1001.61
2016-03-26T08:07:55.158Z,1001.58
2016-03-26T08:08:55.177Z,1001.53
2016-03-26T08:09:55.211Z,1001.48
2016-03-26T08:10:55.229Z,1001.5
2016-03-26T08:11:55.232Z,1001.47
2016-03-26T08:12:55.250Z,1001.46
2016-03-26T08:13:55.268Z,1001.47
2016-03-26T08:14:55.287Z,1001.39
2016-03-26T08:15:55.305Z,1001.38
2016-03-26T08:16:55.324Z,1001.38
2016-03-26T08:17:55.341Z,1001.44
2016-03-26T08:18:55.375Z,1001.37
2016-03-26T08:19:55.379Z,1001.34
2016-03-26T08:20:55.412Z,1001.41
2016-03-26T08:21:55.431Z,1001.39
2016-03-26T08:22:55.449Z,1001.4
2016-03-26T08:23:55.467Z,1001.44
2016-03-26T08:24:55.485Z,1001.39
2016-03-26T08:25:55.504Z,1001.5
2016-03-26T08:26:55.523Z,1001.46
2016-03-26T08:27:55.540Z,1001.49
2016-03-26T08:28:55.559Z,1001.51
2016-03-26T08:29:55.578Z,1001.5
2016-03-26T08:30:55.595Z,1001.43
2016-03-26T08:31:55.614Z,1001.48
2016-03-26T08:32:55.648Z,1001.4
2016-03-26T08:33:55.666Z,1001.48
2016-03-26T08:34:55.669Z,1001.47
2016-03-26T08:35:55.686Z,1001.47
2016-03-26T08:36:55.722Z,1001.52
2016-03-26T08:37:55.739Z,1001.49
2016-03-26T08:38:55.757Z,1001.54
2016-03-26T08:39:55.776Z,1001.55
2016-03-26T08:40:55.782Z,1001.51
2016-03-26T08:41:55.801Z,1001.58
2016-03-26T08:42:55.835Z,1001.51
2016-03-26T08:43:55.853Z,1001.46
2016-03-26T08:44:55.871Z,1001.49
2016-03-26T08:45:55.889Z,1001.46
2016-03-26T08:46:55.908Z,1001.46
2016-03-26T08:47:55.926Z,1001.44
2016-03-26T08:48:55.944Z,1001.51
2016-03-26T08:49:55.964Z,1001.51
2016-03-26T08:50:55.981Z,1001.54
2016-03-26T08:51:56.000Z,1001.54
2016-03-26T08:52:56.017Z,1001.52
2016-03-26T08:53:56.036Z,1001.5
2016-03-26T08:54:56.055Z,1001.54
2016-03-26T08:55:56.072Z,1001.52
2016-03-26T08:56:56.092Z,1001.56
2016-03-26T08:57:56.125Z,1001.54
2016-03-26T08:58:56.128Z,1001.51
2016-03-26T08:59:56.162Z,1001.49
2016-03-26T09:00:56.180Z,1001.52
2016-03-26T09:01:56.198Z,1001.61
2016-03-26T09:02:56.216Z,1001.58
2016-03-26T09:03:56.235Z,1001.59
2016-03-26T09:04:56.254Z,1001.65
2016-03-26T09:05:56.271Z,1001.7
2016-03-26T09:06:56.290Z,1001.69
2016-03-26T09:07:56.307Z,1001.72
2016-03-26T09:08:56.327Z,1001.77
2016-03-26T09:09:56.345Z,1001.75
2016-03-26T09:10:56.363Z,1001.72
2016-03-26T09:11:56.382Z,1001.72
2016-03-26T09:12:56.415Z,1001.73
2016-03-26T09:13:56.434Z,1001.73
2016-03-26T09:14:56.451Z,1001.75
2016-03-26T09:15:56.470Z,1001.74
2016-03-26T09:16:56.489Z,1001.72
2016-03-26T09:17:56.507Z,1001.72
2016-03-26T09:18:56.525Z,1001.68
2016-03-26T09:19:56.544Z,1001.71
2016-03-26T09:20:56.562Z,1001.65
2016-03-26T09:21:56.580Z,1001.65
2016-03-26T09:22:56.598Z,1001.7
2016-03-26T09:23:56.617Z,1001.68
2016-03-26T09:24:56.650Z,1001.66
2016-03-26T09:25:56.669Z,1001.67
2016-03-26T09:26:56.688Z,1001.68
2016-03-26T09:27:56.705Z,1001.72
2016-03-26T09:28:56.724Z,1001.76
2016-03-26T09:29:56.742Z,1001.69
2016-03-26T09:30:56.760Z,1001.71
2016-03-26T09:31:56.779Z,1001.66
2016-03-26T09:32:56.797Z,1001.71
2016-03-26T09:33:56.816Z,1001.67
2016-03-26T09:34:56.849Z,1001.66
2016-03-26T09:35:56.868Z,1001.73
2016-03-26T09:36:56.886Z,1001.72
2016-03-26T09:37:56.904Z,1001.76
2016-03-26T09:38:56.923Z,1001.73
2016-03-26T09:39:56.941Z,1001.81
2016-03-26T09:40:56.959Z,1001.73
2016-03-26T09:41:56.978Z,1001.7
2016-03-26T09:42:57.012Z,1001.7
2016-03-26T09:43:57.014Z,1001.75
2016-03-26T09:44:57.048Z,1001.78
2016-03-26T09:45:57.066Z,1001.76
2016-03-26T09:46:57.084Z,1001.74
2016-03-26T09:47:57.103Z,1001.79
2016-03-26T09:48:57.121Z,1001.77
2016-03-26T09:49:57.139Z,1001.8
2016-03-26T09:50:57.158Z,1001.77
2016-03-26T09:51:57.192Z,1001.74
2016-03-26T09:52:57.194Z,1001.69
2016-03-26T09:53:57.213Z,1001.7
2016-03-26T09:54:57.231Z,1001.68
2016-03-26T09:55:57.266Z,1001.73
2016-03-26T09:56:57.268Z,1001.6
2016-03-26T09:57:57.302Z,1001.6
2016-03-26T09:58:57.320Z,1001.57
2016-03-26T09:59:57.338Z,1001.58
2016-03-26T10:00:57.357Z,1001.51
2016-03-26T10:01:57.391Z,1001.55
2016-03-26T10:02:57.393Z,1001.53
2016-03-26T10:03:57.428Z,1001.52
2016-03-26T10:04:57.446Z,1001.55
2016-03-26T10:05:57.463Z,1001.61
2016-03-26T10:06:57.482Z,1001.55
2016-03-26T10:07:57.501Z,1001.54
2016-03-26T10:08:57.519Z,1001.51
2016-03-26T10:09:57.537Z,1001.5
2016-03-26T10:10:57.571Z,1001.46
2016-03-26T10:11:57.573Z,1001.45
2016-03-26T10:12:57.608Z,1001.48
2016-03-26T10:13:57.610Z,1001.45
2016-03-26T10:14:57.629Z,1001.47
2016-03-26T10:15:57.663Z,1001.44
2016-03-26T10:16:57.682Z,1001.46
2016-03-26T10:17:57.700Z,1001.43
2016-03-26T10:18:57.717Z,1001.41
2016-03-26T10:19:57.736Z,1001.39
2016-03-26T10:20:57.754Z,1001.4
2016-03-26T10:21:57.773Z,1001.4
2016-03-26T10:22:57.791Z,1001.43
2016-03-26T10:23:57.809Z,1001.49
2016-03-26T10:24:57.844Z,1001.45
2016-03-26T10:25:57.861Z,1001.46
2016-03-26T10:26:57.880Z,1001.44
2016-03-26T10:27:57.898Z,1001.36
2016-03-26T10:28:57.917Z,1001.38
2016-03-26T10:29:57.935Z,1001.38
2016-03-26T10:30:57.953Z,1001.41
2016-03-26T10:31:57.971Z,1001.39
2016-03-26T10:32:58.005Z,1001.35
2016-03-26T10:33:58.024Z,1001.34
2016-03-26T10:34:58.042Z,1001.33
2016-03-26T10:35:58.060Z,1001.29
2016-03-26T10:36:58.079Z,1001.31
2016-03-26T10:37:58.097Z,1001.25
2016-03-26T10:38:58.115Z,1001.28
2016-03-26T10:39:58.149Z,1001.29
2016-03-26T10:40:58.168Z,1001.24
2016-03-26T10:41:58.191Z,1001.16
2016-03-26T10:42:58.209Z,1001.16
2016-03-26T10:43:58.228Z,1001.13
2016-03-26T10:44:58.245Z,1001.18
2016-03-26T10:45:58.264Z,1001.19
2016-03-26T10:46:58.282Z,1001.15
2016-03-26T10:47:58.301Z,1001.17
2016-03-26T10:48:58.319Z,1001.13
2016-03-26T10:49:58.353Z,1001.12
2016-03-26T10:50:58.355Z,1001.14
2016-03-26T10:51:58.390Z,1001.12
2016-03-26T10:52:58.408Z,1001.15
2016-03-26T10:53:58.426Z,1001.14
2016-03-26T10:54:58.444Z,1001.13
2016-03-26T10:55:58.463Z,1001.11
2016-03-26T10:56:58.497Z,1001.08
2016-03-26T10:57:58.516Z,1001.03
2016-03-26T10:58:58.549Z,1001.05
2016-03-26T10:59:58.552Z,1001.04
2016-03-26T11:00:58.569Z,1001.02
2016-03-26T11:01:58.588Z,1001.04
2016-03-26T11:02:58.607Z,1001.04
2016-03-26T11:03:58.624Z,1001.02
2016-03-26T11:04:58.659Z,1001.02
2016-03-26T11:05:58.677Z,1000.98
2016-03-26T11:06:58.696Z,1000.99
2016-03-26T11:07:58.713Z,1001
2016-03-26T11:08:58.732Z,1000.89
2016-03-26T11:09:58.751Z,1000.96
2016-03-26T11:10:58.769Z,1000.93
2016-03-26T11:11:58.787Z,1000.94
2016-03-26T11:12:58.806Z,1000.91
2016-03-26T11:13:58.839Z,1000.87
2016-03-26T11:14:58.857Z,1000.93
2016-03-26T11:15:58.876Z,1000.95
2016-03-26T11:16:58.895Z,1000.88
2016-03-26T11:17:58.912Z,1000.94
2016-03-26T11:18:58.931Z,1000.92
2016-03-26T11:19:58.965Z,1000.85
2016-03-26T11:20:58.983Z,1000.83
2016-03-26T11:21:59.001Z,1000.82
2016-03-26T11:22:59.020Z,1000.79
2016-03-26T11:23:59.038Z,1000.78
2016-03-26T11:24:59.056Z,1000.72
2016-03-26T11:25:59.075Z,1000.75
2016-03-26T11:26:59.093Z,1000.67
2016-03-26T11:27:59.127Z,1000.67
2016-03-26T11:28:59.145Z,1000.66
2016-03-26T11:29:59.164Z,1000.65
2016-03-26T11:30:59.182Z,1000.56
2016-03-26T11:31:59.200Z,1000.57
2016-03-26T11:32:59.218Z,1000.5
2016-03-26T11:33:59.237Z,1000.52
2016-03-26T11:34:59.271Z,1000.48
2016-03-26T11:35:59.289Z,1000.49
2016-03-26T11:36:59.307Z,1000.46
2016-03-26T11:37:59.326Z,1000.46
2016-03-26T11:38:59.343Z,1000.51
2016-03-26T11:39:59.379Z,1000.49
2016-03-26T11:40:59.396Z,1000.47
2016-03-26T11:41:59.415Z,1000.45
2016-03-26T11:42:59.432Z,1000.44
2016-03-26T11:43:59.451Z,1000.45
2016-03-26T11:44:59.469Z,1000.46
2016-03-26T11:45:59.504Z,1000.47
2016-03-26T11:46:59.506Z,1000.4
2016-03-26T11:47:59.525Z,1000.45
2016-03-26T11:48:59.558Z,1000.43
2016-03-26T11:49:59.577Z,1000.43
2016-03-26T11:50:59.595Z,1000.38
2016-03-26T11:51:59.614Z,1000.38
2016-03-26T11:52:59.631Z,1000.36
2016-03-26T11:53:59.666Z,1000.37
2016-03-26T11:54:59.683Z,1000.39
2016-03-26T11:55:59.703Z,1000.36
2016-03-26T11:56:59.720Z,1000.41
2016-03-26T11:57:59.739Z,1000.39
2016-03-26T11:58:59.757Z,1000.27
2016-03-26T11:59:59.792Z,1000.31
2016-03-26T12:00:59.810Z,1000.32
2016-03-26T12:01:59.828Z,1000.34
2016-03-26T12:02:59.846Z,1000.38
2016-03-26T12:03:59.864Z,1000.25
2016-03-26T12:04:59.882Z,1000.28
2016-03-26T12:05:59.901Z,1000.35
2016-03-26T12:06:59.935Z,1000.33
2016-03-26T12:07:59.954Z,1000.29
2016-03-26T12:08:59.971Z,1000.28